sensor_id;sensor_type;location;lat;lon;timestamp;temperature;humidity
3876;DHT22;1953;51.222;6.624;2023-03-03T00:03:10;3.10;1.00
3876;DHT22;1953;51.222;6.624;2023-03-03T00:10:13;3.10;1.00
3876;DHT22;1953;51.222;6.624;2023-03-03T00:14:56;3.00;1.00
3876;DHT22;1953;51.222;6.624;2023-03-03T00:19:39;3.00;1.00
3876;DHT22;1953;51.222;6.624;2023-03-03T00:24:23;3.10;1.00
3876;DHT22;1953;51.222;6.624;2023-03-03T00:29:27;3.00;1.00
3876;DHT22;1953;51.222;6.624;2023-03-03T00:34:24;3.00;1.00
3876;DHT22;1953;51.222;6.624;2023-03-03T00:39:18;3.10;1.00
3876;DHT22;1953;51.222;6.624;2023-03-03T00:49:31;3.00;1.00
3876;DHT22;1953;51.222;6.624;2023-03-03T00:54:13;3.10;1.00
3876;DHT22;1953;51.222;6.624;2023-03-03T00:58:56;3.10;1.00
3876;DHT22;1953;51.222;6.624;2023-03-03T01:03:38;3.00;1.00
3876;DHT22;1953;51.222;6.624;2023-03-03T01:08:22;3.10;1.00
3876;DHT22;1953;51.222;6.624;2023-03-03T01:13:05;3.10;1.00
3876;DHT22;1953;51.222;6.624;2023-03-03T01:17:48;3.00;1.00
3876;DHT22;1953;51.222;6.624;2023-03-03T01:22:30;3.00;1.00
3876;DHT22;1953;51.222;6.624;2023-03-03T01:27:14;3.10;1.00
3876;DHT22;1953;51.222;6.624;2023-03-03T01:31:57;3.10;1.00
3876;DHT22;1953;51.222;6.624;2023-03-03T01:36:39;3.10;1.00
3876;DHT22;1953;51.222;6.624;2023-03-03T01:41:22;3.20;1.00
3876;DHT22;1953;51.222;6.624;2023-03-03T01:46:30;3.20;1.00
3876;DHT22;1953;51.222;6.624;2023-03-03T01:51:17;3.20;1.00
3876;DHT22;1953;51.222;6.624;2023-03-03T01:56:02;3.20;1.00
3876;DHT22;1953;51.222;6.624;2023-03-03T02:00:48;3.30;1.00
3876;DHT22;1953;51.222;6.624;2023-03-03T02:05:34;3.20;1.00
3876;DHT22;1953;51.222;6.624;2023-03-03T02:10:18;3.20;1.00
3876;DHT22;1953;51.222;6.624;2023-03-03T02:15:15;3.30;1.00
3876;DHT22;1953;51.222;6.624;2023-03-03T02:20:02;3.30;1.00
3876;DHT22;1953;51.222;6.624;2023-03-03T02:24:50;3.20;1.00
3876;DHT22;1953;51.222;6.624;2023-03-03T02:29:36;3.30;1.00
3876;DHT22;1953;51.222;6.624;2023-03-03T02:34:18;3.40;1.00
3876;DHT22;1953;51.222;6.624;2023-03-03T02:39:06;3.40;1.00
3876;DHT22;1953;51.222;6.624;2023-03-03T02:43:53;3.40;1.00
3876;DHT22;1953;51.222;6.624;2023-03-03T02:48:40;3.30;1.00
3876;DHT22;1953;51.222;6.624;2023-03-03T02:53:22;3.30;1.00
3876;DHT22;1953;51.222;6.624;2023-03-03T02:58:04;3.20;1.00
3876;DHT22;1953;51.222;6.624;2023-03-03T03:02:47;3.30;1.00
3876;DHT22;1953;51.222;6.624;2023-03-03T03:07:31;3.40;1.00
3876;DHT22;1953;51.222;6.624;2023-03-03T03:12:13;3.30;1.00
3876;DHT22;1953;51.222;6.624;2023-03-03T03:16:56;3.40;1.00
3876;DHT22;1953;51.222;6.624;2023-03-03T03:21:38;3.40;1.00
3876;DHT22;1953;51.222;6.624;2023-03-03T03:26:22;3.30;1.00
3876;DHT22;1953;51.222;6.624;2023-03-03T03:31:06;3.30;1.00
3876;DHT22;1953;51.222;6.624;2023-03-03T03:35:49;3.30;1.00
3876;DHT22;1953;51.222;6.624;2023-03-03T03:40:32;3.30;1.00
3876;DHT22;1953;51.222;6.624;2023-03-03T03:45:16;3.30;1.00
3876;DHT22;1953;51.222;6.624;2023-03-03T03:49:58;3.30;1.00
3876;DHT22;1953;51.222;6.624;2023-03-03T03:54:41;3.30;1.00
3876;DHT22;1953;51.222;6.624;2023-03-03T03:59:23;3.40;1.00
3876;DHT22;1953;51.222;6.624;2023-03-03T04:04:07;3.30;1.00
3876;DHT22;1953;51.222;6.624;2023-03-03T04:08:49;3.30;1.00
3876;DHT22;1953;51.222;6.624;2023-03-03T04:13:32;3.30;1.00
3876;DHT22;1953;51.222;6.624;2023-03-03T04:18:15;3.30;1.00
3876;DHT22;1953;51.222;6.624;2023-03-03T04:22:59;3.20;1.00
3876;DHT22;1953;51.222;6.624;2023-03-03T04:27:41;3.10;1.00
3876;DHT22;1953;51.222;6.624;2023-03-03T04:32:24;3.00;1.00
3876;DHT22;1953;51.222;6.624;2023-03-03T04:37:06;3.00;1.00
3876;DHT22;1953;51.222;6.624;2023-03-03T04:41:50;2.80;1.00
3876;DHT22;1953;51.222;6.624;2023-03-03T04:46:33;2.90;1.00
3876;DHT22;1953;51.222;6.624;2023-03-03T04:51:15;2.90;1.00
3876;DHT22;1953;51.222;6.624;2023-03-03T04:55:58;2.80;1.00
3876;DHT22;1953;51.222;6.624;2023-03-03T05:00:42;2.80;1.00
3876;DHT22;1953;51.222;6.624;2023-03-03T05:05:25;2.80;1.00
3876;DHT22;1953;51.222;6.624;2023-03-03T05:10:08;3.00;1.00
3876;DHT22;1953;51.222;6.624;2023-03-03T05:14:51;3.00;1.00
3876;DHT22;1953;51.222;6.624;2023-03-03T05:19:34;2.90;1.00
3876;DHT22;1953;51.222;6.624;2023-03-03T05:24:17;3.00;1.00
3876;DHT22;1953;51.222;6.624;2023-03-03T05:28:59;3.00;1.00
3876;DHT22;1953;51.222;6.624;2023-03-03T05:33:41;2.90;1.00
3876;DHT22;1953;51.222;6.624;2023-03-03T05:38:25;3.00;1.00
3876;DHT22;1953;51.222;6.624;2023-03-03T05:43:08;3.10;1.00
3876;DHT22;1953;51.222;6.624;2023-03-03T05:47:51;3.30;1.00
3876;DHT22;1953;51.222;6.624;2023-03-03T05:52:33;3.30;1.00
3876;DHT22;1953;51.222;6.624;2023-03-03T05:57:17;3.20;1.00
3876;DHT22;1953;51.222;6.624;2023-03-03T06:01:59;3.30;1.00
3876;DHT22;1953;51.222;6.624;2023-03-03T06:06:42;3.20;1.00
3876;DHT22;1953;51.222;6.624;2023-03-03T06:11:24;3.20;1.00
3876;DHT22;1953;51.222;6.624;2023-03-03T06:16:08;3.30;1.00
3876;DHT22;1953;51.222;6.624;2023-03-03T06:20:51;3.30;1.00
3876;DHT22;1953;51.222;6.624;2023-03-03T06:25:34;3.30;1.00
3876;DHT22;1953;51.222;6.624;2023-03-03T06:30:16;3.20;1.00
3876;DHT22;1953;51.222;6.624;2023-03-03T06:35:01;3.20;1.00
3876;DHT22;1953;51.222;6.624;2023-03-03T06:39:43;2.90;1.00
3876;DHT22;1953;51.222;6.624;2023-03-03T06:44:26;2.70;1.00
3876;DHT22;1953;51.222;6.624;2023-03-03T06:49:08;2.60;1.00
3876;DHT22;1953;51.222;6.624;2023-03-03T06:53:53;2.60;1.00
3876;DHT22;1953;51.222;6.624;2023-03-03T06:58:36;2.50;1.00
3876;DHT22;1953;51.222;6.624;2023-03-03T07:03:22;2.60;1.00
3876;DHT22;1953;51.222;6.624;2023-03-03T07:08:08;2.60;1.00
3876;DHT22;1953;51.222;6.624;2023-03-03T07:12:53;2.70;1.00
3876;DHT22;1953;51.222;6.624;2023-03-03T07:17:39;2.80;1.00
3876;DHT22;1953;51.222;6.624;2023-03-03T07:22:24;2.90;1.00
3876;DHT22;1953;51.222;6.624;2023-03-03T07:27:13;2.90;1.00
3876;DHT22;1953;51.222;6.624;2023-03-03T07:31:58;2.90;1.00
3876;DHT22;1953;51.222;6.624;2023-03-03T07:36:42;2.80;1.00
3876;DHT22;1953;51.222;6.624;2023-03-03T07:41:25;2.90;1.00
3876;DHT22;1953;51.222;6.624;2023-03-03T07:46:22;3.00;1.00
3876;DHT22;1953;51.222;6.624;2023-03-03T07:51:15;4.00;1.00
3876;DHT22;1953;51.222;6.624;2023-03-03T07:56:00;3.30;1.00
3876;DHT22;1953;51.222;6.624;2023-03-03T08:06:28;3.40;1.00
3876;DHT22;1953;51.222;6.624;2023-03-03T08:11:12;3.40;1.00
3876;DHT22;1953;51.222;6.624;2023-03-03T08:15:59;3.40;1.00
3876;DHT22;1953;51.222;6.624;2023-03-03T08:20:46;3.30;1.00
3876;DHT22;1953;51.222;6.624;2023-03-03T08:25:30;3.40;1.00
3876;DHT22;1953;51.222;6.624;2023-03-03T08:30:13;3.40;1.00
3876;DHT22;1953;51.222;6.624;2023-03-03T08:34:55;3.50;1.00
3876;DHT22;1953;51.222;6.624;2023-03-03T08:39:38;3.50;1.00
3876;DHT22;1953;51.222;6.624;2023-03-03T08:44:22;3.50;1.00
3876;DHT22;1953;51.222;6.624;2023-03-03T08:49:04;3.50;1.00
3876;DHT22;1953;51.222;6.624;2023-03-03T08:53:47;3.60;1.00
3876;DHT22;1953;51.222;6.624;2023-03-03T08:58:30;3.80;1.00
3876;DHT22;1953;51.222;6.624;2023-03-03T09:03:14;3.80;1.00
3876;DHT22;1953;51.222;6.624;2023-03-03T09:07:56;4.00;1.00
3876;DHT22;1953;51.222;6.624;2023-03-03T09:12:41;4.10;1.00
3876;DHT22;1953;51.222;6.624;2023-03-03T09:17:25;4.20;1.00
3876;DHT22;1953;51.222;6.624;2023-03-03T09:22:18;4.30;1.00
3876;DHT22;1953;51.222;6.624;2023-03-03T09:27:01;4.30;1.00
3876;DHT22;1953;51.222;6.624;2023-03-03T09:31:45;4.40;1.00
3876;DHT22;1953;51.222;6.624;2023-03-03T09:36:34;4.50;1.00
3876;DHT22;1953;51.222;6.624;2023-03-03T09:41:56;4.60;1.00
3876;DHT22;1953;51.222;6.624;2023-03-03T09:46:46;4.60;1.00
3876;DHT22;1953;51.222;6.624;2023-03-03T09:51:47;4.50;1.00
3876;DHT22;1953;51.222;6.624;2023-03-03T09:56:34;4.50;1.00
3876;DHT22;1953;51.222;6.624;2023-03-03T10:01:45;4.60;1.00
3876;DHT22;1953;51.222;6.624;2023-03-03T10:06:33;4.90;1.00
3876;DHT22;1953;51.222;6.624;2023-03-03T10:11:22;4.90;1.00
3876;DHT22;1953;51.222;6.624;2023-03-03T10:16:21;5.10;1.00
3876;DHT22;1953;51.222;6.624;2023-03-03T10:21:18;4.90;1.00
3876;DHT22;1953;51.222;6.624;2023-03-03T10:26:13;5.00;1.00
3876;DHT22;1953;51.222;6.624;2023-03-03T10:31:06;5.00;1.00
3876;DHT22;1953;51.222;6.624;2023-03-03T10:36:17;5.20;1.00
3876;DHT22;1953;51.222;6.624;2023-03-03T10:41:14;5.20;1.00
3876;DHT22;1953;51.222;6.624;2023-03-03T10:46:13;5.20;1.00
3876;DHT22;1953;51.222;6.624;2023-03-03T10:51:07;5.40;1.00
3876;DHT22;1953;51.222;6.624;2023-03-03T10:56:08;5.50;1.00
3876;DHT22;1953;51.222;6.624;2023-03-03T11:01:00;5.40;1.00
3876;DHT22;1953;51.222;6.624;2023-03-03T11:05:50;5.40;1.00
3876;DHT22;1953;51.222;6.624;2023-03-03T11:10:50;5.40;1.00
3876;DHT22;1953;51.222;6.624;2023-03-03T11:15:53;5.50;1.00
3876;DHT22;1953;51.222;6.624;2023-03-03T11:20:40;5.70;1.00
3876;DHT22;1953;51.222;6.624;2023-03-03T11:25:27;5.70;1.00
3876;DHT22;1953;51.222;6.624;2023-03-03T11:30:39;5.80;1.00
3876;DHT22;1953;51.222;6.624;2023-03-03T11:35:30;5.80;1.00
3876;DHT22;1953;51.222;6.624;2023-03-03T11:40:17;5.80;1.00
3876;DHT22;1953;51.222;6.624;2023-03-03T11:45:03;6.00;1.00
3876;DHT22;1953;51.222;6.624;2023-03-03T11:49:50;5.90;1.00
3876;DHT22;1953;51.222;6.624;2023-03-03T11:54:43;5.80;1.00
3876;DHT22;1953;51.222;6.624;2023-03-03T11:59:40;5.70;1.00
3876;DHT22;1953;51.222;6.624;2023-03-03T12:04:28;5.70;1.00
3876;DHT22;1953;51.222;6.624;2023-03-03T12:11:05;6.10;1.00
3876;DHT22;1953;51.222;6.624;2023-03-03T12:15:52;6.10;1.00
3876;DHT22;1953;51.222;6.624;2023-03-03T12:20:42;5.90;1.00
3876;DHT22;1953;51.222;6.624;2023-03-03T12:25:33;5.90;1.00
3876;DHT22;1953;51.222;6.624;2023-03-03T12:30:26;5.90;1.00
3876;DHT22;1953;51.222;6.624;2023-03-03T12:35:19;6.00;1.00
3876;DHT22;1953;51.222;6.624;2023-03-03T12:40:09;6.40;1.00
3876;DHT22;1953;51.222;6.624;2023-03-03T12:45:00;6.60;1.00
3876;DHT22;1953;51.222;6.624;2023-03-03T12:49:56;6.70;1.00
3876;DHT22;1953;51.222;6.624;2023-03-03T13:00:12;7.10;1.00
3876;DHT22;1953;51.222;6.624;2023-03-03T13:05:03;7.30;1.00
3876;DHT22;1953;51.222;6.624;2023-03-03T13:10:02;7.50;1.00
3876;DHT22;1953;51.222;6.624;2023-03-03T13:14:51;7.70;1.00
3876;DHT22;1953;51.222;6.624;2023-03-03T13:19:38;7.60;1.00
3876;DHT22;1953;51.222;6.624;2023-03-03T13:24:29;7.70;1.00
3876;DHT22;1953;51.222;6.624;2023-03-03T13:29:18;7.90;1.00
3876;DHT22;1953;51.222;6.624;2023-03-03T13:34:01;8.00;1.00
3876;DHT22;1953;51.222;6.624;2023-03-03T13:38:47;7.80;1.00
3876;DHT22;1953;51.222;6.624;2023-03-03T13:43:37;7.60;1.00
3876;DHT22;1953;51.222;6.624;2023-03-03T13:48:33;7.30;1.00
3876;DHT22;1953;51.222;6.624;2023-03-03T13:53:34;7.20;1.00
3876;DHT22;1953;51.222;6.624;2023-03-03T13:58:23;7.20;1.00
3876;DHT22;1953;51.222;6.624;2023-03-03T14:08:28;7.20;1.00
3876;DHT22;1953;51.222;6.624;2023-03-03T14:13:25;7.20;1.00
3876;DHT22;1953;51.222;6.624;2023-03-03T14:18:23;7.40;1.00
3876;DHT22;1953;51.222;6.624;2023-03-03T14:23:10;7.30;1.00
3876;DHT22;1953;51.222;6.624;2023-03-03T14:28:01;7.30;1.00
3876;DHT22;1953;51.222;6.624;2023-03-03T14:32:58;7.10;1.00
3876;DHT22;1953;51.222;6.624;2023-03-03T14:37:44;7.60;1.00
3876;DHT22;1953;51.222;6.624;2023-03-03T14:42:33;8.30;1.00
3876;DHT22;1953;51.222;6.624;2023-03-03T14:47:21;8.70;1.00
3876;DHT22;1953;51.222;6.624;2023-03-03T14:52:17;8.60;1.00
3876;DHT22;1953;51.222;6.624;2023-03-03T14:57:06;9.00;1.00
3876;DHT22;1953;51.222;6.624;2023-03-03T15:01:57;9.60;1.00
3876;DHT22;1953;51.222;6.624;2023-03-03T15:06:43;9.80;1.00
3876;DHT22;1953;51.222;6.624;2023-03-03T15:11:29;10.00;1.00
3876;DHT22;1953;51.222;6.624;2023-03-03T15:16:19;10.10;1.00
3876;DHT22;1953;51.222;6.624;2023-03-03T15:21:04;10.10;1.00
3876;DHT22;1953;51.222;6.624;2023-03-03T15:25:56;9.90;1.00
3876;DHT22;1953;51.222;6.624;2023-03-03T15:30:47;10.10;1.00
3876;DHT22;1953;51.222;6.624;2023-03-03T15:35:43;10.30;1.00
3876;DHT22;1953;51.222;6.624;2023-03-03T15:40:35;10.50;1.00
3876;DHT22;1953;51.222;6.624;2023-03-03T15:45:25;10.60;1.00
3876;DHT22;1953;51.222;6.624;2023-03-03T15:50:20;10.90;1.00
3876;DHT22;1953;51.222;6.624;2023-03-03T15:55:23;11.00;1.00
3876;DHT22;1953;51.222;6.624;2023-03-03T16:00:24;11.00;1.00
3876;DHT22;1953;51.222;6.624;2023-03-03T16:05:14;11.10;1.00
3876;DHT22;1953;51.222;6.624;2023-03-03T16:10:07;10.90;1.00
3876;DHT22;1953;51.222;6.624;2023-03-03T16:15:04;10.50;1.00
3876;DHT22;1953;51.222;6.624;2023-03-03T16:19:59;10.50;1.00
3876;DHT22;1953;51.222;6.624;2023-03-03T16:24:54;10.40;1.00
3876;DHT22;1953;51.222;6.624;2023-03-03T16:29:45;10.20;1.00
3876;DHT22;1953;51.222;6.624;2023-03-03T16:34:41;10.10;1.00
3876;DHT22;1953;51.222;6.624;2023-03-03T16:39:35;10.00;1.00
3876;DHT22;1953;51.222;6.624;2023-03-03T16:44:33;9.80;1.00
3876;DHT22;1953;51.222;6.624;2023-03-03T16:49:26;9.60;1.00
3876;DHT22;1953;51.222;6.624;2023-03-03T16:54:17;9.40;1.00
3876;DHT22;1953;51.222;6.624;2023-03-03T16:59:33;9.20;1.00
3876;DHT22;1953;51.222;6.624;2023-03-03T17:04:33;9.10;1.00
3876;DHT22;1953;51.222;6.624;2023-03-03T17:09:37;8.80;1.00
3876;DHT22;1953;51.222;6.624;2023-03-03T17:14:34;8.60;1.00
3876;DHT22;1953;51.222;6.624;2023-03-03T17:19:29;8.40;1.00
3876;DHT22;1953;51.222;6.624;2023-03-03T17:24:25;8.20;1.00
3876;DHT22;1953;51.222;6.624;2023-03-03T17:29:34;8.20;1.00
3876;DHT22;1953;51.222;6.624;2023-03-03T17:34:33;8.00;1.00
3876;DHT22;1953;51.222;6.624;2023-03-03T17:39:41;7.80;1.00
3876;DHT22;1953;51.222;6.624;2023-03-03T17:44:35;7.80;1.00
3876;DHT22;1953;51.222;6.624;2023-03-03T17:49:34;7.60;1.00
3876;DHT22;1953;51.222;6.624;2023-03-03T17:54:38;7.50;1.00
3876;DHT22;1953;51.222;6.624;2023-03-03T17:59:46;7.40;1.00
3876;DHT22;1953;51.222;6.624;2023-03-03T18:04:40;7.20;1.00
3876;DHT22;1953;51.222;6.624;2023-03-03T18:09:40;7.10;1.00
3876;DHT22;1953;51.222;6.624;2023-03-03T18:25:10;6.70;1.00
3876;DHT22;1953;51.222;6.624;2023-03-03T18:30:17;6.50;1.00
3876;DHT22;1953;51.222;6.624;2023-03-03T18:35:21;6.30;1.00
3876;DHT22;1953;51.222;6.624;2023-03-03T18:40:32;6.20;1.00
3876;DHT22;1953;51.222;6.624;2023-03-03T18:45:47;6.00;1.00
3876;DHT22;1953;51.222;6.624;2023-03-03T18:50:33;5.90;1.00
3876;DHT22;1953;51.222;6.624;2023-03-03T18:55:25;5.80;1.00
3876;DHT22;1953;51.222;6.624;2023-03-03T19:00:14;5.80;1.00
3876;DHT22;1953;51.222;6.624;2023-03-03T19:05:07;5.80;1.00
3876;DHT22;1953;51.222;6.624;2023-03-03T19:09:54;5.80;1.00
3876;DHT22;1953;51.222;6.624;2023-03-03T19:14:39;5.70;1.00
3876;DHT22;1953;51.222;6.624;2023-03-03T19:19:24;5.70;1.00
3876;DHT22;1953;51.222;6.624;2023-03-03T19:24:28;5.90;1.00
3876;DHT22;1953;51.222;6.624;2023-03-03T19:29:21;5.80;1.00
3876;DHT22;1953;51.222;6.624;2023-03-03T19:34:07;5.80;1.00
3876;DHT22;1953;51.222;6.624;2023-03-03T19:44:12;6.00;1.00
3876;DHT22;1953;51.222;6.624;2023-03-03T19:49:07;6.00;1.00
3876;DHT22;1953;51.222;6.624;2023-03-03T19:54:01;6.10;1.00
3876;DHT22;1953;51.222;6.624;2023-03-03T19:58:57;6.00;1.00
3876;DHT22;1953;51.222;6.624;2023-03-03T20:04:11;6.00;1.00
3876;DHT22;1953;51.222;6.624;2023-03-03T20:09:01;6.00;1.00
3876;DHT22;1953;51.222;6.624;2023-03-03T20:13:51;5.90;1.00
3876;DHT22;1953;51.222;6.624;2023-03-03T20:19:01;5.80;1.00
3876;DHT22;1953;51.222;6.624;2023-03-03T20:23:58;5.80;1.00
3876;DHT22;1953;51.222;6.624;2023-03-03T20:34:05;5.80;1.00
3876;DHT22;1953;51.222;6.624;2023-03-03T20:38:59;5.80;1.00
3876;DHT22;1953;51.222;6.624;2023-03-03T20:43:53;5.80;1.00
3876;DHT22;1953;51.222;6.624;2023-03-03T20:49:03;5.80;1.00
3876;DHT22;1953;51.222;6.624;2023-03-03T20:53:53;5.90;1.00
3876;DHT22;1953;51.222;6.624;2023-03-03T20:58:49;5.80;1.00
3876;DHT22;1953;51.222;6.624;2023-03-03T21:03:34;5.70;1.00
3876;DHT22;1953;51.222;6.624;2023-03-03T21:08:17;5.60;1.00
3876;DHT22;1953;51.222;6.624;2023-03-03T21:13:26;5.80;1.00
3876;DHT22;1953;51.222;6.624;2023-03-03T21:18:19;5.90;1.00
3876;DHT22;1953;51.222;6.624;2023-03-03T21:23:03;6.00;1.00
3876;DHT22;1953;51.222;6.624;2023-03-03T21:27:46;6.00;1.00
3876;DHT22;1953;51.222;6.624;2023-03-03T21:32:40;6.00;1.00
3876;DHT22;1953;51.222;6.624;2023-03-03T21:37:42;6.00;1.00
3876;DHT22;1953;51.222;6.624;2023-03-03T21:42:38;6.00;1.00
3876;DHT22;1953;51.222;6.624;2023-03-03T21:47:22;6.10;1.00
3876;DHT22;1953;51.222;6.624;2023-03-03T21:52:06;6.10;1.00
3876;DHT22;1953;51.222;6.624;2023-03-03T21:56:48;6.00;1.00
3876;DHT22;1953;51.222;6.624;2023-03-03T22:01:31;6.00;1.00
3876;DHT22;1953;51.222;6.624;2023-03-03T22:06:13;6.00;1.00
3876;DHT22;1953;51.222;6.624;2023-03-03T22:10:57;5.90;1.00
3876;DHT22;1953;51.222;6.624;2023-03-03T22:15:39;5.90;1.00
3876;DHT22;1953;51.222;6.624;2023-03-03T22:20:22;5.90;1.00
3876;DHT22;1953;51.222;6.624;2023-03-03T22:25:05;5.90;1.00
3876;DHT22;1953;51.222;6.624;2023-03-03T22:29:49;5.90;1.00
3876;DHT22;1953;51.222;6.624;2023-03-03T22:34:31;6.10;1.00
3876;DHT22;1953;51.222;6.624;2023-03-03T22:39:13;6.20;1.00
3876;DHT22;1953;51.222;6.624;2023-03-03T22:43:56;6.20;1.00
3876;DHT22;1953;51.222;6.624;2023-03-03T22:48:40;6.20;1.00
3876;DHT22;1953;51.222;6.624;2023-03-03T22:53:23;6.20;1.00
3876;DHT22;1953;51.222;6.624;2023-03-03T22:58:06;6.20;1.00
3876;DHT22;1953;51.222;6.624;2023-03-03T23:02:49;6.20;1.00
3876;DHT22;1953;51.222;6.624;2023-03-03T23:07:33;6.20;1.00
3876;DHT22;1953;51.222;6.624;2023-03-03T23:12:15;6.30;1.00
3876;DHT22;1953;51.222;6.624;2023-03-03T23:16:58;6.20;1.00
3876;DHT22;1953;51.222;6.624;2023-03-03T23:21:40;6.30;1.00
3876;DHT22;1953;51.222;6.624;2023-03-03T23:26:24;6.40;1.00
3876;DHT22;1953;51.222;6.624;2023-03-03T23:31:06;6.40;1.00
3876;DHT22;1953;51.222;6.624;2023-03-03T23:35:49;6.40;1.00
3876;DHT22;1953;51.222;6.624;2023-03-03T23:40:32;6.40;1.00
3876;DHT22;1953;51.222;6.624;2023-03-03T23:45:16;6.40;1.00
3876;DHT22;1953;51.222;6.624;2023-03-03T23:49:59;6.40;1.00
3876;DHT22;1953;51.222;6.624;2023-03-03T23:54:41;6.40;1.00
3876;DHT22;1953;51.222;6.624;2023-03-03T23:59:24;6.40;1.00
